createdAt,value
2019-03-18T00:00:41.095Z,96.20
2019-03-18T00:05:46.247Z,96.00
2019-03-18T00:10:51.399Z,95.70
2019-03-18T00:16:15.807Z,95.80
2019-03-18T00:21:20.959Z,96.00
2019-03-18T00:26:25.861Z,95.70
2019-03-18T00:31:42.830Z,95.90
2019-03-18T00:36:48.414Z,95.90
2019-03-18T00:41:53.774Z,95.90
2019-03-18T00:46:58.897Z,96.20
2019-03-18T00:52:04.048Z,96.50
2019-03-18T00:57:09.415Z,96.30
2019-03-18T01:02:14.594Z,96.50
2019-03-18T01:07:19.953Z,96.70
2019-03-18T01:12:25.032Z,96.70
2019-03-18T01:17:49.519Z,97.10
2019-03-18T01:23:13.801Z,97.20
2019-03-18T01:28:19.654Z,97.30
2019-03-18T01:33:25.032Z,97.30
2019-03-18T01:38:30.067Z,97.30
2019-03-18T01:43:54.596Z,97.20
2019-03-18T01:49:18.898Z,97.10
2019-03-18T01:54:35.688Z,97.00
2019-03-18T01:59:52.685Z,96.80
2019-03-18T02:04:57.798Z,96.80
2019-03-18T02:10:22.836Z,96.60
2019-03-18T02:15:28.404Z,96.70
2019-03-18T02:20:33.725Z,96.70
2019-03-18T02:25:58.374Z,96.70
2019-03-18T02:31:04.374Z,96.60
2019-03-18T02:36:10.095Z,96.50
2019-03-18T02:41:16.291Z,96.20
2019-03-18T02:46:22.404Z,95.90
2019-03-18T02:51:28.240Z,95.50
2019-03-18T02:56:53.005Z,95.80
2019-03-18T03:01:58.411Z,95.40
2019-03-18T03:07:03.611Z,95.20
2019-03-18T03:12:08.632Z,94.90
2019-03-18T03:17:25.455Z,94.60
2019-03-18T03:22:30.693Z,94.20
2019-03-18T03:27:35.786Z,94.20
2019-03-18T03:32:40.710Z,93.80
2019-03-18T03:37:45.652Z,93.70
2019-03-18T03:43:09.807Z,93.50
2019-03-18T03:48:14.895Z,93.30
2019-03-18T03:53:20.076Z,93.10
2019-03-18T03:58:25.204Z,92.90
2019-03-18T04:03:49.738Z,92.80
2019-03-18T04:09:14.248Z,92.50
2019-03-18T04:14:19.409Z,92.70
2019-03-18T04:19:24.743Z,92.40
2019-03-18T04:24:49.155Z,92.20
2019-03-18T04:30:14.375Z,92.40
2019-03-18T04:35:19.731Z,92.70
2019-03-18T04:40:24.679Z,92.30
2019-03-18T04:45:29.825Z,92.20
2019-03-18T04:50:34.833Z,92.10
2019-03-18T04:55:59.139Z,91.90
2019-03-18T05:01:04.361Z,91.50
2019-03-18T05:06:09.486Z,91.60
2019-03-18T05:11:14.544Z,91.60
2019-03-18T05:16:20.226Z,91.40
2019-03-18T05:21:25.382Z,91.30
2019-03-18T05:26:30.312Z,91.40
2019-03-18T05:31:54.838Z,91.00
2019-03-18T05:36:59.933Z,90.90
2019-03-18T05:42:04.947Z,90.70
2019-03-18T05:47:09.890Z,90.90
2019-03-18T05:52:15.038Z,90.90
2019-03-18T05:57:20.199Z,90.70
2019-03-18T06:02:25.606Z,90.60
2019-03-18T06:07:30.653Z,90.60
2019-03-18T06:12:35.590Z,90.50
2019-03-18T06:17:53.163Z,90.10
2019-03-18T06:22:59.497Z,90.20
2019-03-18T06:28:24.177Z,90.10
2019-03-18T06:33:29.240Z,90.10
2019-03-18T06:38:34.527Z,89.90
2019-03-18T06:43:39.666Z,89.90
2019-03-18T06:48:44.660Z,89.50
2019-03-18T06:53:49.838Z,87.50
2019-03-18T06:59:14.118Z,87.20
2019-03-18T07:04:19.048Z,86.80
2019-03-18T07:09:24.061Z,84.40
2019-03-18T07:14:29.067Z,84.40
2019-03-18T07:19:34.313Z,83.80
2019-03-18T07:24:39.285Z,82.70
2019-03-18T07:29:44.655Z,82.20
2019-03-18T07:34:50.212Z,81.20
2019-03-18T07:40:15.302Z,81.70
2019-03-18T07:45:20.705Z,80.10
2019-03-18T07:50:26.035Z,79.40
2019-03-18T07:55:31.615Z,79.50
2019-03-18T08:00:56.339Z,77.70
2019-03-18T08:06:01.870Z,79.20
2019-03-18T08:11:26.347Z,77.20
2019-03-18T08:16:32.037Z,74.60
2019-03-18T08:21:37.219Z,76.20
2019-03-18T08:26:42.362Z,74.70
2019-03-18T08:31:47.851Z,76.90
2019-03-18T08:37:12.260Z,74.90
2019-03-18T08:42:17.225Z,74.00
2019-03-18T08:47:42.080Z,76.10
2019-03-18T08:52:59.080Z,76.70
2019-03-18T08:58:08.660Z,77.80
2019-03-18T09:03:13.845Z,77.10
2019-03-18T09:08:19.034Z,76.70
2019-03-18T09:13:24.380Z,76.50
2019-03-18T09:18:48.866Z,77.80
2019-03-18T09:23:54.348Z,77.00
2019-03-18T09:28:59.330Z,78.70
2019-03-18T09:34:04.606Z,78.00
2019-03-18T09:39:09.608Z,78.70
2019-03-18T09:44:14.823Z,76.20
2019-03-18T09:49:21.977Z,76.30
2019-03-18T09:54:26.824Z,75.90
2019-03-18T09:59:31.789Z,75.00
2019-03-18T10:04:56.370Z,76.40
2019-03-18T10:10:01.700Z,76.80
2019-03-18T10:15:09.921Z,77.40
2019-03-18T10:20:15.510Z,75.20
2019-03-18T10:25:20.741Z,75.10
2019-03-18T10:30:26.007Z,74.50
2019-03-18T10:35:31.290Z,74.10
2019-03-18T10:40:36.506Z,74.80
2019-03-18T10:45:41.760Z,75.40
2019-03-18T10:50:46.711Z,75.30
2019-03-18T10:55:52.025Z,75.60
2019-03-18T11:00:57.255Z,73.30
2019-03-18T11:06:02.495Z,73.80
2019-03-18T11:11:07.649Z,71.50
2019-03-18T11:16:31.926Z,72.40
2019-03-18T11:21:56.605Z,72.00
2019-03-18T11:27:01.567Z,71.60
2019-03-18T11:32:19.163Z,73.10
2019-03-18T11:37:24.311Z,72.10
2019-03-18T11:42:29.261Z,71.40
2019-03-18T11:47:34.831Z,71.30
2019-03-18T11:52:39.991Z,71.40
2019-03-18T11:57:45.191Z,71.70
2019-03-18T12:02:50.154Z,70.50
2019-03-18T12:07:55.152Z,71.40
2019-03-18T12:13:00.551Z,71.30
2019-03-18T12:18:05.510Z,70.70
2019-03-18T12:23:10.818Z,71.20
2019-03-18T12:28:35.358Z,71.30
2019-03-18T12:33:41.079Z,69.80
2019-03-18T12:38:46.070Z,69.20
2019-03-18T12:43:51.639Z,70.60
2019-03-18T12:48:57.000Z,68.40
2019-03-18T12:54:01.935Z,68.30
2019-03-18T12:59:07.161Z,67.10
2019-03-18T13:04:12.339Z,68.10
2019-03-18T13:09:36.716Z,67.20
2019-03-18T13:14:41.682Z,67.00
2019-03-18T13:19:47.258Z,68.00
2019-03-18T13:24:52.618Z,67.10
2019-03-18T13:29:57.750Z,66.90
2019-03-18T13:35:03.180Z,68.10
2019-03-18T13:40:16.979Z,66.90
2019-03-18T13:45:54.322Z,66.40
2019-03-18T13:50:48.524Z,67.30
2019-03-18T13:55:53.875Z,67.80
2019-03-18T14:00:58.845Z,66.70
2019-03-18T14:06:04.137Z,66.30
2019-03-18T14:11:09.319Z,67.00
2019-03-18T14:16:14.294Z,66.20
2019-03-18T14:21:19.668Z,66.70
2019-03-18T14:26:24.665Z,65.60
2019-03-18T14:31:29.673Z,61.30
2019-03-18T14:36:44.787Z,63.60
2019-03-18T14:41:53.013Z,64.00
2019-03-18T14:46:58.672Z,63.50
2019-03-18T14:52:03.938Z,63.70
2019-03-18T14:57:09.209Z,62.90
2019-03-18T15:02:33.565Z,63.60
2019-03-18T15:07:38.537Z,62.40
2019-03-18T15:12:43.756Z,62.20
2019-03-18T15:17:49.238Z,63.80
2019-03-18T15:23:13.900Z,65.00
2019-03-18T15:28:38.559Z,65.20
2019-03-18T15:33:44.163Z,65.00
2019-03-18T15:38:49.695Z,64.10
2019-03-18T15:43:54.870Z,64.40
2019-03-18T15:48:59.841Z,64.90
2019-03-18T15:54:05.103Z,65.40
2019-03-18T15:59:10.462Z,64.50
2019-03-18T16:04:15.502Z,65.10
2019-03-18T16:09:20.957Z,65.20
2019-03-18T16:14:26.262Z,65.50
2019-03-18T16:19:31.535Z,65.40
2019-03-18T16:24:36.838Z,66.20
2019-03-18T16:29:42.300Z,66.20
2019-03-18T16:34:48.223Z,66.80
2019-03-18T16:39:53.367Z,66.80
2019-03-18T16:44:58.469Z,67.20
2019-03-18T16:50:04.632Z,67.80
2019-03-18T16:55:09.840Z,67.80
2019-03-18T17:00:17.881Z,68.10
2019-03-18T17:05:23.283Z,68.40
2019-03-18T17:10:28.876Z,69.20
2019-03-18T17:15:33.914Z,70.30
2019-03-18T17:20:39.402Z,70.80
2019-03-18T17:25:44.719Z,71.50
2019-03-18T17:30:50.308Z,71.40
2019-03-18T17:35:55.713Z,71.60
2019-03-18T17:41:01.007Z,72.10
2019-03-18T17:46:06.373Z,72.40
2019-03-18T17:51:33.279Z,72.80
2019-03-18T17:56:37.372Z,72.80
2019-03-18T18:01:42.301Z,72.90
2019-03-18T18:06:47.550Z,73.10
2019-03-18T18:11:52.544Z,73.30
2019-03-18T18:16:57.437Z,73.50
2019-03-18T18:22:02.472Z,73.30
2019-03-18T18:27:07.563Z,73.70
2019-03-18T18:32:13.043Z,74.50
2019-03-18T18:37:18.827Z,74.80
2019-03-18T18:42:23.859Z,74.90
2019-03-18T18:47:29.378Z,75.00
2019-03-18T18:52:34.529Z,75.40
2019-03-18T18:57:39.918Z,75.50
2019-03-18T19:02:45.650Z,76.00
2019-03-18T19:07:50.968Z,76.10
2019-03-18T19:12:56.415Z,76.40
2019-03-18T19:18:01.996Z,76.20
2019-03-18T19:23:07.227Z,76.60
2019-03-18T19:28:14.421Z,75.80
2019-03-18T19:33:19.467Z,75.70
2019-03-18T19:38:24.685Z,75.90
2019-03-18T19:43:29.985Z,75.80
2019-03-18T19:48:35.119Z,76.10
2019-03-18T19:53:49.063Z,76.80
2019-03-18T19:58:48.032Z,77.70
2019-03-18T20:03:52.964Z,78.50
2019-03-18T20:08:58.505Z,79.10
2019-03-18T20:14:04.015Z,79.40
2019-03-18T20:19:09.174Z,79.60
2019-03-18T20:24:14.794Z,80.00
2019-03-18T20:29:19.997Z,80.20
2019-03-18T20:34:25.464Z,81.00
2019-03-18T20:39:31.226Z,81.60
2019-03-18T20:44:36.623Z,82.80
2019-03-18T20:49:42.156Z,83.60
2019-03-18T20:54:47.671Z,85.10
2019-03-18T20:59:53.165Z,86.50
2019-03-18T21:04:58.324Z,86.80
2019-03-18T21:10:04.655Z,86.50
2019-03-18T21:15:11.829Z,86.70
2019-03-18T21:20:45.260Z,86.70
2019-03-18T21:25:50.679Z,86.10
2019-03-18T21:30:56.123Z,85.90
2019-03-18T21:36:01.802Z,85.50
2019-03-18T21:41:07.574Z,85.80
2019-03-18T21:46:12.665Z,86.60
2019-03-18T21:51:19.754Z,86.70
2019-03-18T21:56:25.474Z,86.30
2019-03-18T22:01:31.134Z,86.70
2019-03-18T22:06:37.046Z,87.30
2019-03-18T22:11:42.086Z,87.70
2019-03-18T22:16:47.637Z,88.10
2019-03-18T22:21:53.516Z,88.30
2019-03-18T22:26:59.637Z,89.10
2019-03-18T22:32:05.239Z,89.40
2019-03-18T22:37:11.188Z,89.10
2019-03-18T22:42:16.636Z,89.30
2019-03-18T22:47:22.356Z,89.90
2019-03-18T22:52:27.950Z,90.00
2019-03-18T22:57:52.369Z,90.20
2019-03-18T23:02:57.948Z,90.50
2019-03-18T23:08:03.711Z,90.60
2019-03-18T23:13:09.009Z,90.80
2019-03-18T23:18:14.645Z,91.00
2019-03-18T23:23:20.531Z,91.20
2019-03-18T23:28:26.207Z,91.30
2019-03-18T23:33:31.730Z,91.40
2019-03-18T23:38:37.004Z,91.70
2019-03-18T23:44:01.500Z,91.90
2019-03-18T23:49:08.278Z,92.00
2019-03-18T23:54:16.741Z,92.30
2019-03-18T23:59:22.280Z,92.30
